Main page
METAR-TAF:

METAR-TAF

Airports :

Sabadell Airport

Sabadell, Spain

latitude: 41-31N, longitude: 002-06E, elevation: 250 m

Current weather observation

The report was made 17 minutes ago, at 04:30 UTC
Wind 3 kt from the West/Northwest, varying between West and North/Northwest
Temperature 4°C
Humidity 93%
Pressure 1028 hPa
Visibility 10 km or more
no clouds below 1500 m and no cumulonimbus

METAR: LELL 210430Z AUTO 30003KT 260V330 CAVOK 04/03 Q1028

Time: 05:47 (04:47 UTC)

Forecast

The report was made 2 hours and 47 minutes ago, at 02:00 UTC
Forecast valid from 21 at 03 UTC to 22 at 03 UTC
Wind 3 kt from variable directions
Visibility 10 km or more
Few clouds at a height of 2000 ft
Becoming
from 21 at 09 UTC to 21 at 11 UTC
Wind 10 kt from the Southwest
Becoming
from 21 at 17 UTC to 21 at 20 UTC
Wind 3 kt from variable directions

TAF: LELL 210200Z 2103/2203 VRB03KT 9999 FEW020 TX18/2113Z TN05/2106Z BECMG 2109/2111 23010KT BECMG 2117/2120 VRB03KT

Weather observations and forecasts of more than 4000 airports (METAR and TAF reports).

The available stations are represented by yellow and red dots on the map.

Hover mouse over dot to see the name of the station.

Then click to see weather observations and forecasts.

To change the map : click on the green buttons with a black cross to zoom in, on the green button with a dash to zoom out, or on the green arrows for adjacent maps.


METAR-TAF: